sensor_id;sensor_type;location;lat;lon;timestamp;pressure;altitude;pressure_sealevel;temperature
54026;BMP280;74404;50.662;3.398;2024-03-23T00:54:04;100587.72;;;10.10
54026;BMP280;74404;50.662;3.398;2024-03-23T00:56:29;100590.66;;;10.08
54026;BMP280;74404;50.662;3.398;2024-03-23T00:58:55;100589.59;;;10.09
54026;BMP280;74404;50.662;3.398;2024-03-23T01:01:20;100587.50;;;10.06
54026;BMP280;74404;50.662;3.398;2024-03-23T01:03:46;100593.06;;;10.05
54026;BMP280;74404;50.662;3.398;2024-03-23T01:06:11;100586.72;;;10.06
54026;BMP280;74404;50.662;3.398;2024-03-23T01:08:37;100586.25;;;10.04
54026;BMP280;74404;50.662;3.398;2024-03-23T01:11:02;100586.81;;;10.00
54026;BMP280;74404;50.662;3.398;2024-03-23T01:13:28;100575.66;;;9.98
54026;BMP280;74404;50.662;3.398;2024-03-23T01:15:55;100579.91;;;9.99
54026;BMP280;74404;50.662;3.398;2024-03-23T01:18:21;100579.41;;;9.97
54026;BMP280;74404;50.662;3.398;2024-03-23T01:20:47;100577.81;;;9.96
54026;BMP280;74404;50.662;3.398;2024-03-23T01:23:13;100585.78;;;9.96
54026;BMP280;74404;50.662;3.398;2024-03-23T01:25:38;100581.59;;;9.95
54026;BMP280;74404;50.662;3.398;2024-03-23T01:28:05;100578.59;;;9.97
54026;BMP280;74404;50.662;3.398;2024-03-23T01:30:35;100578.94;;;9.95
54026;BMP280;74404;50.662;3.398;2024-03-23T01:33:01;100575.94;;;9.97
54026;BMP280;74404;50.662;3.398;2024-03-23T01:35:28;100579.22;;;9.94
54026;BMP280;74404;50.662;3.398;2024-03-23T01:37:53;100576.28;;;9.95
54026;BMP280;74404;50.662;3.398;2024-03-23T01:40:19;100571.81;;;9.91
54026;BMP280;74404;50.662;3.398;2024-03-23T01:43:05;100572.03;;;9.94
54026;BMP280;74404;50.662;3.398;2024-03-23T01:45:33;100571.25;;;9.94
54026;BMP280;74404;50.662;3.398;2024-03-23T01:47:59;100560.66;;;9.94
54026;BMP280;74404;50.662;3.398;2024-03-23T01:50:25;100556.97;;;9.90
54026;BMP280;74404;50.662;3.398;2024-03-23T01:52:51;100559.34;;;9.91
54026;BMP280;74404;50.662;3.398;2024-03-23T01:55:16;100560.66;;;9.94
54026;BMP280;74404;50.662;3.398;2024-03-23T01:57:42;100561.72;;;9.93
54026;BMP280;74404;50.662;3.398;2024-03-23T02:00:08;100563.84;;;9.91
54026;BMP280;74404;50.662;3.398;2024-03-23T02:02:35;100564.38;;;9.93
54026;BMP280;74404;50.662;3.398;2024-03-23T02:05:00;100559.63;;;9.90
54026;BMP280;74404;50.662;3.398;2024-03-23T02:07:26;100564.91;;;9.90
54026;BMP280;74404;50.662;3.398;2024-03-23T02:09:52;100571.00;;;9.90
54026;BMP280;74404;50.662;3.398;2024-03-23T02:12:18;100564.41;;;9.88
54026;BMP280;74404;50.662;3.398;2024-03-23T02:14:43;100564.22;;;9.84
54026;BMP280;74404;50.662;3.398;2024-03-23T02:17:09;100570.81;;;9.87
54026;BMP280;74404;50.662;3.398;2024-03-23T02:19:35;100570.31;;;9.85
54026;BMP280;74404;50.662;3.398;2024-03-23T02:22:00;100572.19;;;9.84
54026;BMP280;74404;50.662;3.398;2024-03-23T02:24:26;100566.34;;;9.82
54026;BMP280;74404;50.662;3.398;2024-03-23T02:26:51;100572.47;;;9.83
54026;BMP280;74404;50.662;3.398;2024-03-23T02:29:17;100565.06;;;9.79
54026;BMP280;74404;50.662;3.398;2024-03-23T02:31:42;100564.00;;;9.80
54026;BMP280;74404;50.662;3.398;2024-03-23T02:34:07;100571.16;;;9.80
54026;BMP280;74404;50.662;3.398;2024-03-23T02:36:33;100571.16;;;9.80
54026;BMP280;74404;50.662;3.398;2024-03-23T02:38:59;100563.47;;;9.78
54026;BMP280;74404;50.662;3.398;2024-03-23T02:41:24;100558.16;;;9.78
54026;BMP280;74404;50.662;3.398;2024-03-23T02:43:50;100561.13;;;9.77
54026;BMP280;74404;50.662;3.398;2024-03-23T02:46:15;100562.41;;;9.79
54026;BMP280;74404;50.662;3.398;2024-03-23T02:48:41;100558.97;;;9.79
54026;BMP280;74404;50.662;3.398;2024-03-23T02:51:06;100561.41;;;9.75
54026;BMP280;74404;50.662;3.398;2024-03-23T02:53:32;100558.47;;;9.77
54026;BMP280;74404;50.662;3.398;2024-03-23T02:55:58;100551.09;;;9.74
54026;BMP280;74404;50.662;3.398;2024-03-23T02:58:23;100554.81;;;9.73
54026;BMP280;74404;50.662;3.398;2024-03-23T03:00:49;100559.03;;;9.74
54026;BMP280;74404;50.662;3.398;2024-03-23T03:03:14;100549.81;;;9.71
54026;BMP280;74404;50.662;3.398;2024-03-23T03:05:40;100556.44;;;9.69
54026;BMP280;74404;50.662;3.398;2024-03-23T03:08:06;100554.38;;;9.66
54026;BMP280;74404;50.662;3.398;2024-03-23T03:10:31;100555.97;;;9.67
54026;BMP280;74404;50.662;3.398;2024-03-23T03:13:00;100567.63;;;9.66
54026;BMP280;74404;50.662;3.398;2024-03-23T03:15:25;100562.69;;;9.59
54026;BMP280;74404;50.662;3.398;2024-03-23T03:17:51;100567.41;;;9.62
54026;BMP280;74404;50.662;3.398;2024-03-23T03:20:16;100565.31;;;9.59
54026;BMP280;74404;50.662;3.398;2024-03-23T03:22:43;100566.41;;;9.58
54026;BMP280;74404;50.662;3.398;2024-03-23T03:25:09;100565.91;;;9.56
54026;BMP280;74404;50.662;3.398;2024-03-23T03:27:34;100578.34;;;9.55
54026;BMP280;74404;50.662;3.398;2024-03-23T03:30:00;100565.38;;;9.54
54026;BMP280;74404;50.662;3.398;2024-03-23T03:32:32;100571.75;;;9.53
54026;BMP280;74404;50.662;3.398;2024-03-23T03:34:57;100581.03;;;9.50
54026;BMP280;74404;50.662;3.398;2024-03-23T03:37:24;100588.53;;;9.48
54026;BMP280;74404;50.662;3.398;2024-03-23T03:39:49;100588.78;;;9.47
54026;BMP280;74404;50.662;3.398;2024-03-23T03:42:15;100595.16;;;9.46
54026;BMP280;74404;50.662;3.398;2024-03-23T03:44:40;100591.22;;;9.43
54026;BMP280;74404;50.662;3.398;2024-03-23T03:47:06;100583.53;;;9.41
54026;BMP280;74404;50.662;3.398;2024-03-23T03:49:32;100594.13;;;9.41
54026;BMP280;74404;50.662;3.398;2024-03-23T03:51:57;100587.28;;;9.40
54026;BMP280;74404;50.662;3.398;2024-03-23T03:54:22;100592.63;;;9.35
54026;BMP280;74404;50.662;3.398;2024-03-23T03:56:48;100589.19;;;9.35
54026;BMP280;74404;50.662;3.398;2024-03-23T03:59:13;100591.56;;;9.36
54026;BMP280;74404;50.662;3.398;2024-03-23T04:01:39;100585.22;;;9.32
54026;BMP280;74404;50.662;3.398;2024-03-23T04:04:05;100586.81;;;9.33
54026;BMP280;74404;50.662;3.398;2024-03-23T04:06:30;100588.16;;;9.31
54026;BMP280;74404;50.662;3.398;2024-03-23T04:08:56;100588.97;;;9.31
54026;BMP280;74404;50.662;3.398;2024-03-23T04:11:21;100589.00;;;9.26
54026;BMP280;74404;50.662;3.398;2024-03-23T04:13:47;100583.19;;;9.24
54026;BMP280;74404;50.662;3.398;2024-03-23T04:16:13;100586.94;;;9.23
54026;BMP280;74404;50.662;3.398;2024-03-23T04:18:38;100589.31;;;9.25
54026;BMP280;74404;50.662;3.398;2024-03-23T04:21:04;100590.69;;;9.17
54026;BMP280;74404;50.662;3.398;2024-03-23T04:23:29;100593.06;;;9.18
54026;BMP280;74404;50.662;3.398;2024-03-23T04:25:54;100585.69;;;9.15
54026;BMP280;74404;50.662;3.398;2024-03-23T04:28:20;100586.69;;;9.19
54026;BMP280;74404;50.662;3.398;2024-03-23T04:30:46;100583.19;;;9.24
54026;BMP280;74404;50.662;3.398;2024-03-23T04:33:11;100579.56;;;9.20
54026;BMP280;74404;50.662;3.398;2024-03-23T04:35:37;100579.56;;;9.20
54026;BMP280;74404;50.662;3.398;2024-03-23T04:38:02;100578.47;;;9.21
54026;BMP280;74404;50.662;3.398;2024-03-23T04:40:27;100581.41;;;9.19
54026;BMP280;74404;50.662;3.398;2024-03-23T04:42:53;100583.81;;;9.16
54026;BMP280;74404;50.662;3.398;2024-03-23T04:45:18;100580.38;;;9.15
54026;BMP280;74404;50.662;3.398;2024-03-23T04:47:45;100581.44;;;9.14
54026;BMP280;74404;50.662;3.398;2024-03-23T04:50:10;100583.31;;;9.14
54026;BMP280;74404;50.662;3.398;2024-03-23T04:52:36;100578.00;;;9.14
54026;BMP280;74404;50.662;3.398;2024-03-23T04:55:01;100588.13;;;9.12
54026;BMP280;74404;50.662;3.398;2024-03-23T04:57:27;100583.09;;;9.10
54026;BMP280;74404;50.662;3.398;2024-03-23T04:59:52;100581.28;;;9.06
54026;BMP280;74404;50.662;3.398;2024-03-23T05:02:18;100577.28;;;9.08
54026;BMP280;74404;50.662;3.398;2024-03-23T05:04:43;100581.78;;;9.08
54026;BMP280;74404;50.662;3.398;2024-03-23T05:07:08;100584.69;;;9.06
54026;BMP280;74404;50.662;3.398;2024-03-23T05:09:34;100582.84;;;9.07
54026;BMP280;74404;50.662;3.398;2024-03-23T05:12:00;100586.34;;;9.02
54026;BMP280;74404;50.662;3.398;2024-03-23T05:14:26;100585.50;;;9.07
54026;BMP280;74404;50.662;3.398;2024-03-23T05:16:52;100582.94;;;9.02
54026;BMP280;74404;50.662;3.398;2024-03-23T05:19:17;100587.69;;;8.99
54026;BMP280;74404;50.662;3.398;2024-03-23T05:21:43;100586.63;;;9.00
54026;BMP280;74404;50.662;3.398;2024-03-23T05:24:08;100588.22;;;8.96
54026;BMP280;74404;50.662;3.398;2024-03-23T05:26:34;100585.59;;;8.96
54026;BMP280;74404;50.662;3.398;2024-03-23T05:29:01;100584.28;;;8.94
54026;BMP280;74404;50.662;3.398;2024-03-23T05:31:28;100592.03;;;8.90
54026;BMP280;74404;50.662;3.398;2024-03-23T05:33:54;100596.22;;;8.91
54026;BMP280;74404;50.662;3.398;2024-03-23T05:36:20;100594.66;;;8.90
54026;BMP280;74404;50.662;3.398;2024-03-23T05:38:45;100602.59;;;8.90
54026;BMP280;74404;50.662;3.398;2024-03-23T05:41:11;100602.38;;;8.87
54026;BMP280;74404;50.662;3.398;2024-03-23T05:43:36;100603.44;;;8.86
54026;BMP280;74404;50.662;3.398;2024-03-23T05:46:02;100598.19;;;8.80
54026;BMP280;74404;50.662;3.398;2024-03-23T05:48:30;100605.31;;;8.80
54026;BMP280;74404;50.662;3.398;2024-03-23T05:50:56;100605.88;;;8.77
54026;BMP280;74404;50.662;3.398;2024-03-23T05:53:21;100600.59;;;8.77
54026;BMP280;74404;50.662;3.398;2024-03-23T05:55:47;100607.22;;;8.74
54026;BMP280;74404;50.662;3.398;2024-03-23T05:58:16;100608.81;;;8.75
54026;BMP280;74404;50.662;3.398;2024-03-23T06:00:42;100601.13;;;8.74
54026;BMP280;74404;50.662;3.398;2024-03-23T06:03:08;100597.41;;;8.75
54026;BMP280;74404;50.662;3.398;2024-03-23T06:05:35;100599.53;;;8.73
54026;BMP280;74404;50.662;3.398;2024-03-23T06:08:00;100603.28;;;8.72
54026;BMP280;74404;50.662;3.398;2024-03-23T06:10:26;100609.41;;;8.67
54026;BMP280;74404;50.662;3.398;2024-03-23T06:12:51;100610.44;;;8.71
54026;BMP280;74404;50.662;3.398;2024-03-23T06:15:21;100606.47;;;8.64
54026;BMP280;74404;50.662;3.398;2024-03-23T06:17:48;100610.69;;;8.70
54026;BMP280;74404;50.662;3.398;2024-03-23T06:20:13;100616.53;;;8.67
54026;BMP280;74404;50.662;3.398;2024-03-23T06:22:39;100620.53;;;8.64
54026;BMP280;74404;50.662;3.398;2024-03-23T06:25:05;100619.44;;;8.65
54026;BMP280;74404;50.662;3.398;2024-03-23T06:27:31;100623.97;;;8.65
54026;BMP280;74404;50.662;3.398;2024-03-23T06:29:58;100617.66;;;8.60
54026;BMP280;74404;50.662;3.398;2024-03-23T06:32:23;100632.47;;;8.61
54026;BMP280;74404;50.662;3.398;2024-03-23T06:34:49;100632.72;;;8.60
54026;BMP280;74404;50.662;3.398;2024-03-23T06:37:14;100635.63;;;8.58
54026;BMP280;74404;50.662;3.398;2024-03-23T06:39:40;100623.25;;;8.54
54026;BMP280;74404;50.662;3.398;2024-03-23T06:42:05;100627.72;;;8.53
54026;BMP280;74404;50.662;3.398;2024-03-23T06:44:31;100646.25;;;8.53
54026;BMP280;74404;50.662;3.398;2024-03-23T06:46:57;100618.78;;;8.49
54026;BMP280;74404;50.662;3.398;2024-03-23T06:49:23;100638.59;;;8.52
54026;BMP280;74404;50.662;3.398;2024-03-23T06:51:49;100638.09;;;8.50
54026;BMP280;74404;50.662;3.398;2024-03-23T06:54:16;100634.66;;;8.49
54026;BMP280;74404;50.662;3.398;2024-03-23T06:56:44;100633.84;;;8.49
54026;BMP280;74404;50.662;3.398;2024-03-23T06:59:09;100634.94;;;8.48
54026;BMP280;74404;50.662;3.398;2024-03-23T07:01:35;100639.97;;;8.44
54026;BMP280;74404;50.662;3.398;2024-03-23T07:04:00;100634.13;;;8.42
54026;BMP280;74404;50.662;3.398;2024-03-23T07:06:26;100632.81;;;8.45
54026;BMP280;74404;50.662;3.398;2024-03-23T07:08:52;100638.94;;;8.40
54026;BMP280;74404;50.662;3.398;2024-03-23T07:11:21;100652.13;;;8.45
54026;BMP280;74404;50.662;3.398;2024-03-23T07:13:51;100645.00;;;8.40
54026;BMP280;74404;50.662;3.398;2024-03-23T07:16:17;100645.31;;;8.39
54026;BMP280;74404;50.662;3.398;2024-03-23T07:18:43;100645.81;;;8.41
54026;BMP280;74404;50.662;3.398;2024-03-23T07:21:08;100641.81;;;8.44
54026;BMP280;74404;50.662;3.398;2024-03-23T07:23:34;100647.66;;;8.46
54026;BMP280;74404;50.662;3.398;2024-03-23T07:26:04;100637.59;;;8.43
54026;BMP280;74404;50.662;3.398;2024-03-23T07:28:33;100641.53;;;8.45
54026;BMP280;74404;50.662;3.398;2024-03-23T07:33:31;100634.72;;;8.39
54026;BMP280;74404;50.662;3.398;2024-03-23T07:35:57;100665.88;;;8.42
54026;BMP280;74404;50.662;3.398;2024-03-23T07:38:25;100663.25;;;8.42
54026;BMP280;74404;50.662;3.398;2024-03-23T07:40:51;100653.25;;;8.39
54026;BMP280;74404;50.662;3.398;2024-03-23T07:43:23;100655.88;;;8.39
54026;BMP280;74404;50.662;3.398;2024-03-23T07:45:52;100650.59;;;8.39
54026;BMP280;74404;50.662;3.398;2024-03-23T07:48:18;100653.19;;;8.44
54026;BMP280;74404;50.662;3.398;2024-03-23T07:50:44;100655.84;;;8.44
54026;BMP280;74404;50.662;3.398;2024-03-23T07:53:09;100640.25;;;8.43
54026;BMP280;74404;50.662;3.398;2024-03-23T07:55:35;100656.91;;;8.43
54026;BMP280;74404;50.662;3.398;2024-03-23T07:58:00;100655.56;;;8.46
54026;BMP280;74404;50.662;3.398;2024-03-23T08:00:26;100642.63;;;8.44
54026;BMP280;74404;50.662;3.398;2024-03-23T08:02:51;100648.69;;;8.45
54026;BMP280;74404;50.662;3.398;2024-03-23T08:05:17;100641.31;;;8.41
54026;BMP280;74404;50.662;3.398;2024-03-23T08:07:42;100650.81;;;8.48
54026;BMP280;74404;50.662;3.398;2024-03-23T08:10:08;100655.00;;;8.49
54026;BMP280;74404;50.662;3.398;2024-03-23T08:12:33;100659.00;;;8.51
54026;BMP280;74404;50.662;3.398;2024-03-23T08:14:59;100638.34;;;8.48
54026;BMP280;74404;50.662;3.398;2024-03-23T08:17:24;100643.13;;;8.51
54026;BMP280;74404;50.662;3.398;2024-03-23T08:19:49;100642.59;;;8.49
54026;BMP280;74404;50.662;3.398;2024-03-23T08:22:15;100636.47;;;8.54
54026;BMP280;74404;50.662;3.398;2024-03-23T08:24:40;100653.88;;;8.60
54026;BMP280;74404;50.662;3.398;2024-03-23T08:27:06;100653.66;;;8.56
54026;BMP280;74404;50.662;3.398;2024-03-23T08:29:31;100651.00;;;8.56
54026;BMP280;74404;50.662;3.398;2024-03-23T08:31:57;100643.84;;;8.57
54026;BMP280;74404;50.662;3.398;2024-03-23T08:34:22;100640.94;;;8.58
54026;BMP280;74404;50.662;3.398;2024-03-23T08:36:47;100636.66;;;8.63
54026;BMP280;74404;50.662;3.398;2024-03-23T08:39:13;100638.78;;;8.66
54026;BMP280;74404;50.662;3.398;2024-03-23T08:41:39;100628.19;;;8.66
54026;BMP280;74404;50.662;3.398;2024-03-23T08:44:04;100636.66;;;8.68
54026;BMP280;74404;50.662;3.398;2024-03-23T08:46:30;100640.06;;;8.68
54026;BMP280;74404;50.662;3.398;2024-03-23T08:48:55;100636.38;;;8.69
54026;BMP280;74404;50.662;3.398;2024-03-23T08:51:20;100639.28;;;8.68
54026;BMP280;74404;50.662;3.398;2024-03-23T08:53:46;100634.28;;;8.66
54026;BMP280;74404;50.662;3.398;2024-03-23T08:56:11;100639.56;;;8.66
54026;BMP280;74404;50.662;3.398;2024-03-23T08:58:37;100647.19;;;8.73
54026;BMP280;74404;50.662;3.398;2024-03-23T09:01:11;100640.84;;;8.74
54026;BMP280;74404;50.662;3.398;2024-03-23T09:03:40;100649.78;;;8.78
54026;BMP280;74404;50.662;3.398;2024-03-23T09:06:13;100649.28;;;8.76
54026;BMP280;74404;50.662;3.398;2024-03-23T09:08:39;100649.78;;;8.78
54026;BMP280;74404;50.662;3.398;2024-03-23T09:11:12;100670.69;;;8.79
54026;BMP280;74404;50.662;3.398;2024-03-23T09:13:38;100653.78;;;8.80
54026;BMP280;74404;50.662;3.398;2024-03-23T09:16:05;100647.66;;;8.80
54026;BMP280;74404;50.662;3.398;2024-03-23T09:18:32;100654.56;;;8.81
54026;BMP280;74404;50.662;3.398;2024-03-23T09:20:57;100653.19;;;8.84
54026;BMP280;74404;50.662;3.398;2024-03-23T09:23:23;100649.75;;;8.83
54026;BMP280;74404;50.662;3.398;2024-03-23T09:25:48;100650.00;;;8.87
54026;BMP280;74404;50.662;3.398;2024-03-23T09:28:14;100654.50;;;8.86
54026;BMP280;74404;50.662;3.398;2024-03-23T09:30:39;100661.38;;;8.87
54026;BMP280;74404;50.662;3.398;2024-03-23T09:33:09;100655.56;;;8.85
54026;BMP280;74404;50.662;3.398;2024-03-23T09:35:41;100649.19;;;8.86
54026;BMP280;74404;50.662;3.398;2024-03-23T09:38:07;100658.75;;;8.87
54026;BMP280;74404;50.662;3.398;2024-03-23T09:40:34;100652.94;;;8.85
54026;BMP280;74404;50.662;3.398;2024-03-23T09:43:00;100658.47;;;8.89
54026;BMP280;74404;50.662;3.398;2024-03-23T09:45:29;100651.03;;;8.91
54026;BMP280;74404;50.662;3.398;2024-03-23T09:47:55;100657.13;;;8.91
54026;BMP280;74404;50.662;3.398;2024-03-23T09:50:21;100647.59;;;8.90
54026;BMP280;74404;50.662;3.398;2024-03-23T09:52:47;100647.59;;;8.90
54026;BMP280;74404;50.662;3.398;2024-03-23T09:55:13;100633.00;;;8.93
54026;BMP280;74404;50.662;3.398;2024-03-23T09:57:40;100632.78;;;8.89
54026;BMP280;74404;50.662;3.398;2024-03-23T10:00:06;100634.09;;;8.92
54026;BMP280;74404;50.662;3.398;2024-03-23T10:02:36;100626.34;;;9.00
54026;BMP280;74404;50.662;3.398;2024-03-23T10:05:02;100614.91;;;9.05
54026;BMP280;74404;50.662;3.398;2024-03-23T10:07:28;100624.16;;;8.78
54026;BMP280;74404;50.662;3.398;2024-03-23T10:09:54;100612.75;;;8.78
54026;BMP280;74404;50.662;3.398;2024-03-23T10:12:19;100598.66;;;8.82
54026;BMP280;74404;50.662;3.398;2024-03-23T10:14:45;100611.06;;;8.92
54026;BMP280;74404;50.662;3.398;2024-03-23T10:19:45;100612.06;;;8.96
54026;BMP280;74404;50.662;3.398;2024-03-23T10:22:14;100610.72;;;8.99
54026;BMP280;74404;50.662;3.398;2024-03-23T10:24:43;100620.25;;;8.95
54026;BMP280;74404;50.662;3.398;2024-03-23T10:27:09;100614.09;;;8.75
54026;BMP280;74404;50.662;3.398;2024-03-23T10:29:34;100623.09;;;8.74
54026;BMP280;74404;50.662;3.398;2024-03-23T10:32:14;100593.84;;;8.90
54026;BMP280;74404;50.662;3.398;2024-03-23T10:34:39;100602.00;;;8.98
54026;BMP280;74404;50.662;3.398;2024-03-23T10:37:06;100591.66;;;9.02
54026;BMP280;74404;50.662;3.398;2024-03-23T10:39:37;100596.66;;;9.04
54026;BMP280;74404;50.662;3.398;2024-03-23T10:42:04;100604.81;;;9.07
54026;BMP280;74404;50.662;3.398;2024-03-23T10:44:30;100591.59;;;9.07
54026;BMP280;74404;50.662;3.398;2024-03-23T10:46:57;100591.59;;;9.07
54026;BMP280;74404;50.662;3.398;2024-03-23T10:49:30;100614.88;;;9.10
54026;BMP280;74404;50.662;3.398;2024-03-23T10:52:00;100620.47;;;9.04
54026;BMP280;74404;50.662;3.398;2024-03-23T10:54:26;100594.19;;;9.12
54026;BMP280;74404;50.662;3.398;2024-03-23T10:57:13;100584.97;;;9.05
54026;BMP280;74404;50.662;3.398;2024-03-23T10:59:40;100574.38;;;9.05
54026;BMP280;74404;50.662;3.398;2024-03-23T11:02:06;100576.75;;;9.06
54026;BMP280;74404;50.662;3.398;2024-03-23T11:04:33;100572.28;;;9.07
54026;BMP280;74404;50.662;3.398;2024-03-23T11:07:00;100574.38;;;9.05
54026;BMP280;74404;50.662;3.398;2024-03-23T11:12:30;100575.75;;;9.02
54026;BMP280;74404;50.662;3.398;2024-03-23T11:15:01;100569.09;;;9.05
54026;BMP280;74404;50.662;3.398;2024-03-23T11:17:27;100570.94;;;9.04
54026;BMP280;74404;50.662;3.398;2024-03-23T11:25:03;100557.22;;;9.02
54026;BMP280;74404;50.662;3.398;2024-03-23T11:27:28;100550.63;;;8.99
54026;BMP280;74404;50.662;3.398;2024-03-23T11:29:54;100558.75;;;9.03
54026;BMP280;74404;50.662;3.398;2024-03-23T11:32:19;100551.94;;;9.02
54026;BMP280;74404;50.662;3.398;2024-03-23T11:34:45;100556.44;;;9.02
54026;BMP280;74404;50.662;3.398;2024-03-23T11:37:10;100549.28;;;9.02
54026;BMP280;74404;50.662;3.398;2024-03-23T11:39:35;100538.19;;;9.00
54026;BMP280;74404;50.662;3.398;2024-03-23T11:42:01;100537.56;;;9.08
54026;BMP280;74404;50.662;3.398;2024-03-23T11:44:26;100563.16;;;9.13
54026;BMP280;74404;50.662;3.398;2024-03-23T11:46:52;100536.75;;;9.08
54026;BMP280;74404;50.662;3.398;2024-03-23T11:49:25;100538.13;;;9.05
54026;BMP280;74404;50.662;3.398;2024-03-23T11:51:52;100524.88;;;9.05
54026;BMP280;74404;50.662;3.398;2024-03-23T11:54:24;100517.72;;;9.06
54026;BMP280;74404;50.662;3.398;2024-03-23T11:57:00;100511.09;;;9.08
54026;BMP280;74404;50.662;3.398;2024-03-23T11:59:36;100503.94;;;9.09
54026;BMP280;74404;50.662;3.398;2024-03-23T12:02:09;100496.50;;;9.11
54026;BMP280;74404;50.662;3.398;2024-03-23T12:04:36;100494.06;;;9.14
54026;BMP280;74404;50.662;3.398;2024-03-23T12:07:11;100502.53;;;9.16
54026;BMP280;74404;50.662;3.398;2024-03-23T12:09:37;100496.66;;;9.19
54026;BMP280;74404;50.662;3.398;2024-03-23T12:12:15;100491.66;;;9.18
54026;BMP280;74404;50.662;3.398;2024-03-23T12:15:02;100480.47;;;9.21
54026;BMP280;74404;50.662;3.398;2024-03-23T12:17:28;100473.91;;;9.18
54026;BMP280;74404;50.662;3.398;2024-03-23T12:19:54;100474.09;;;9.22
54026;BMP280;74404;50.662;3.398;2024-03-23T12:22:23;100473.81;;;9.24
54026;BMP280;74404;50.662;3.398;2024-03-23T12:24:49;100478.84;;;9.25
54026;BMP280;74404;50.662;3.398;2024-03-23T12:27:14;100476.97;;;9.26
54026;BMP280;74404;50.662;3.398;2024-03-23T12:29:40;100458.44;;;9.26
54026;BMP280;74404;50.662;3.398;2024-03-23T12:32:06;100460.31;;;9.25
54026;BMP280;74404;50.662;3.398;2024-03-23T12:34:32;100464.50;;;9.26
54026;BMP280;74404;50.662;3.398;2024-03-23T12:36:57;100465.59;;;9.25
54026;BMP280;74404;50.662;3.398;2024-03-23T12:39:23;100479.91;;;9.24
54026;BMP280;74404;50.662;3.398;2024-03-23T12:41:49;100500.03;;;9.25
54026;BMP280;74404;50.662;3.398;2024-03-23T12:44:15;100495.88;;;9.19
54026;BMP280;74404;50.662;3.398;2024-03-23T12:46:44;100489.25;;;9.22
54026;BMP280;74404;50.662;3.398;2024-03-23T12:49:10;100469.44;;;9.14
54026;BMP280;74404;50.662;3.398;2024-03-23T12:51:36;100456.19;;;9.14
54026;BMP280;74404;50.662;3.398;2024-03-23T12:54:02;100465.47;;;9.16
54026;BMP280;74404;50.662;3.398;2024-03-23T12:56:28;100460.84;;;9.22
54026;BMP280;74404;50.662;3.398;2024-03-23T12:58:54;100457.09;;;9.28
54026;BMP280;74404;50.662;3.398;2024-03-23T13:01:20;100457.88;;;9.29
54026;BMP280;74404;50.662;3.398;2024-03-23T13:03:47;100449.16;;;9.28
54026;BMP280;74404;50.662;3.398;2024-03-23T13:06:12;100461.81;;;9.31
54026;BMP280;74404;50.662;3.398;2024-03-23T13:08:38;100447.47;;;9.32
54026;BMP280;74404;50.662;3.398;2024-03-23T13:11:05;100453.59;;;9.33
54026;BMP280;74404;50.662;3.398;2024-03-23T13:13:31;100442.19;;;9.32
54026;BMP280;74404;50.662;3.398;2024-03-23T13:15:57;100450.44;;;9.31
54026;BMP280;74404;50.662;3.398;2024-03-23T13:18:22;100444.38;;;9.30
54026;BMP280;74404;50.662;3.398;2024-03-23T13:20:48;100436.69;;;9.29
54026;BMP280;74404;50.662;3.398;2024-03-23T13:23:13;100459.47;;;9.30
54026;BMP280;74404;50.662;3.398;2024-03-23T13:25:38;100434.03;;;9.29
54026;BMP280;74404;50.662;3.398;2024-03-23T13:28:04;100442.28;;;9.27
54026;BMP280;74404;50.662;3.398;2024-03-23T13:30:30;100444.13;;;9.27
54026;BMP280;74404;50.662;3.398;2024-03-23T13:32:55;100445.47;;;9.24
54026;BMP280;74404;50.662;3.398;2024-03-23T13:35:21;100441.78;;;9.25
54026;BMP280;74404;50.662;3.398;2024-03-23T13:37:46;100434.31;;;9.27
54026;BMP280;74404;50.662;3.398;2024-03-23T13:40:12;100442.53;;;9.26
54026;BMP280;74404;50.662;3.398;2024-03-23T13:42:37;100424.22;;;9.29
54026;BMP280;74404;50.662;3.398;2024-03-23T13:45:03;100411.22;;;9.33
54026;BMP280;74404;50.662;3.398;2024-03-23T13:47:29;100406.19;;;9.31
54026;BMP280;74404;50.662;3.398;2024-03-23T13:49:55;100405.78;;;9.43
54026;BMP280;74404;50.662;3.398;2024-03-23T13:52:21;100405.47;;;9.45
54026;BMP280;74404;50.662;3.398;2024-03-23T13:54:48;100404.13;;;9.47
54026;BMP280;74404;50.662;3.398;2024-03-23T13:57:14;100402.00;;;9.49
54026;BMP280;74404;50.662;3.398;2024-03-23T13:59:39;100402.00;;;9.49
54026;BMP280;74404;50.662;3.398;2024-03-23T14:02:05;100399.81;;;9.51
54026;BMP280;74404;50.662;3.398;2024-03-23T14:04:30;100379.69;;;9.50
54026;BMP280;74404;50.662;3.398;2024-03-23T14:06:56;100396.69;;;9.49
54026;BMP280;74404;50.662;3.398;2024-03-23T14:09:21;100385.47;;;9.52
54026;BMP280;74404;50.662;3.398;2024-03-23T14:11:51;100384.97;;;9.50
54026;BMP280;74404;50.662;3.398;2024-03-23T14:14:17;100384.22;;;9.50
54026;BMP280;74404;50.662;3.398;2024-03-23T14:16:43;100386.09;;;9.49
54026;BMP280;74404;50.662;3.398;2024-03-23T14:19:08;100377.34;;;9.49
54026;BMP280;74404;50.662;3.398;2024-03-23T14:21:34;100381.88;;;9.48
54026;BMP280;74404;50.662;3.398;2024-03-23T14:24:00;100385.84;;;9.46
54026;BMP280;74404;50.662;3.398;2024-03-23T14:26:27;100381.38;;;9.46
54026;BMP280;74404;50.662;3.398;2024-03-23T14:28:52;100363.03;;;9.50
54026;BMP280;74404;50.662;3.398;2024-03-23T14:31:18;100368.03;;;9.51
54026;BMP280;74404;50.662;3.398;2024-03-23T14:33:43;100368.03;;;9.51
54026;BMP280;74404;50.662;3.398;2024-03-23T14:36:15;100348.38;;;9.52
54026;BMP280;74404;50.662;3.398;2024-03-23T14:38:41;100354.72;;;9.56
54026;BMP280;74404;50.662;3.398;2024-03-23T14:41:07;100361.06;;;9.55
54026;BMP280;74404;50.662;3.398;2024-03-23T14:43:33;100339.09;;;9.55
54026;BMP280;74404;50.662;3.398;2024-03-23T14:46:15;100340.44;;;9.52
54026;BMP280;74404;50.662;3.398;2024-03-23T14:48:42;100335.94;;;9.53
54026;BMP280;74404;50.662;3.398;2024-03-23T14:51:10;100327.72;;;9.54
54026;BMP280;74404;50.662;3.398;2024-03-23T14:53:40;100333.00;;;9.54
54026;BMP280;74404;50.662;3.398;2024-03-23T14:56:08;100330.59;;;9.58
54026;BMP280;74404;50.662;3.398;2024-03-23T14:58:37;100317.78;;;9.60
54026;BMP280;74404;50.662;3.398;2024-03-23T15:01:03;100324.41;;;9.63
54026;BMP280;74404;50.662;3.398;2024-03-23T15:03:29;100307.19;;;9.60
54026;BMP280;74404;50.662;3.398;2024-03-23T15:05:56;100310.34;;;9.62
54026;BMP280;74404;50.662;3.398;2024-03-23T15:08:22;100318.50;;;9.66
54026;BMP280;74404;50.662;3.398;2024-03-23T15:10:48;100299.88;;;9.71